sensor_id;sensor_type;location;lat;lon;timestamp;P1;durP1;ratioP1;P2;durP2;ratioP2
38901;SDS011;24661;53.566;9.910;2022-07-18T00:00:05;4.17;;;2.73;;
38901;SDS011;24661;53.566;9.910;2022-07-18T00:02:33;4.53;;;2.97;;
38901;SDS011;24661;53.566;9.910;2022-07-18T00:04:59;3.33;;;2.50;;
38901;SDS011;24661;53.566;9.910;2022-07-18T00:07:24;2.93;;;2.50;;
38901;SDS011;24661;53.566;9.910;2022-07-18T00:09:50;3.73;;;2.77;;
38901;SDS011;24661;53.566;9.910;2022-07-18T00:12:16;5.63;;;3.10;;
38901;SDS011;24661;53.566;9.910;2022-07-18T00:14:41;4.43;;;2.80;;
38901;SDS011;24661;53.566;9.910;2022-07-18T00:17:07;3.87;;;2.43;;
38901;SDS011;24661;53.566;9.910;2022-07-18T00:19:34;4.10;;;3.13;;
38901;SDS011;24661;53.566;9.910;2022-07-18T00:22:00;3.33;;;2.77;;
38901;SDS011;24661;53.566;9.910;2022-07-18T00:24:27;3.83;;;2.50;;
38901;SDS011;24661;53.566;9.910;2022-07-18T00:26:53;4.10;;;2.83;;
38901;SDS011;24661;53.566;9.910;2022-07-18T00:29:18;3.43;;;2.63;;
38901;SDS011;24661;53.566;9.910;2022-07-18T00:31:44;3.37;;;2.50;;
38901;SDS011;24661;53.566;9.910;2022-07-18T00:34:10;2.60;;;2.23;;
38901;SDS011;24661;53.566;9.910;2022-07-18T00:36:35;2.90;;;2.57;;
38901;SDS011;24661;53.566;9.910;2022-07-18T00:39:01;2.47;;;2.27;;
38901;SDS011;24661;53.566;9.910;2022-07-18T00:41:27;6.60;;;2.80;;
38901;SDS011;24661;53.566;9.910;2022-07-18T00:43:53;3.70;;;2.90;;
38901;SDS011;24661;53.566;9.910;2022-07-18T00:46:22;6.97;;;2.40;;
38901;SDS011;24661;53.566;9.910;2022-07-18T00:48:48;3.43;;;2.70;;
38901;SDS011;24661;53.566;9.910;2022-07-18T00:51:15;3.20;;;2.30;;
38901;SDS011;24661;53.566;9.910;2022-07-18T00:53:42;5.57;;;2.83;;
38901;SDS011;24661;53.566;9.910;2022-07-18T00:56:08;4.27;;;2.23;;
38901;SDS011;24661;53.566;9.910;2022-07-18T00:58:34;4.07;;;2.20;;
38901;SDS011;24661;53.566;9.910;2022-07-18T01:01:00;4.47;;;2.90;;
38901;SDS011;24661;53.566;9.910;2022-07-18T01:03:44;4.03;;;2.43;;
38901;SDS011;24661;53.566;9.910;2022-07-18T01:06:10;3.33;;;2.37;;
38901;SDS011;24661;53.566;9.910;2022-07-18T01:08:36;5.40;;;2.20;;
38901;SDS011;24661;53.566;9.910;2022-07-18T01:11:03;2.70;;;2.03;;
38901;SDS011;24661;53.566;9.910;2022-07-18T01:13:29;2.87;;;2.40;;
38901;SDS011;24661;53.566;9.910;2022-07-18T01:15:54;2.30;;;2.10;;
38901;SDS011;24661;53.566;9.910;2022-07-18T01:18:20;3.67;;;2.53;;
38901;SDS011;24661;53.566;9.910;2022-07-18T01:20:46;3.13;;;2.23;;
38901;SDS011;24661;53.566;9.910;2022-07-18T01:23:11;2.40;;;2.13;;
38901;SDS011;24661;53.566;9.910;2022-07-18T01:25:37;3.73;;;2.30;;
38901;SDS011;24661;53.566;9.910;2022-07-18T01:28:03;3.43;;;2.20;;
38901;SDS011;24661;53.566;9.910;2022-07-18T01:30:29;3.57;;;2.80;;
38901;SDS011;24661;53.566;9.910;2022-07-18T01:32:55;3.47;;;2.60;;
38901;SDS011;24661;53.566;9.910;2022-07-18T01:35:25;8.83;;;3.07;;
38901;SDS011;24661;53.566;9.910;2022-07-18T01:37:52;3.97;;;2.67;;
38901;SDS011;24661;53.566;9.910;2022-07-18T01:40:20;3.17;;;2.87;;
38901;SDS011;24661;53.566;9.910;2022-07-18T01:42:46;3.47;;;2.37;;
38901;SDS011;24661;53.566;9.910;2022-07-18T01:45:12;7.07;;;3.03;;
38901;SDS011;24661;53.566;9.910;2022-07-18T01:47:38;3.47;;;2.70;;
38901;SDS011;24661;53.566;9.910;2022-07-18T01:50:04;4.87;;;2.73;;
38901;SDS011;24661;53.566;9.910;2022-07-18T01:52:30;5.97;;;2.73;;
38901;SDS011;24661;53.566;9.910;2022-07-18T01:54:56;4.10;;;2.60;;
38901;SDS011;24661;53.566;9.910;2022-07-18T01:57:21;4.13;;;2.70;;
38901;SDS011;24661;53.566;9.910;2022-07-18T01:59:48;5.43;;;3.20;;
38901;SDS011;24661;53.566;9.910;2022-07-18T02:02:14;4.73;;;2.83;;
38901;SDS011;24661;53.566;9.910;2022-07-18T02:04:40;4.23;;;2.80;;
38901;SDS011;24661;53.566;9.910;2022-07-18T02:07:24;3.90;;;2.90;;
38901;SDS011;24661;53.566;9.910;2022-07-18T02:10:06;3.97;;;2.50;;
38901;SDS011;24661;53.566;9.910;2022-07-18T02:12:33;4.00;;;2.60;;
38901;SDS011;24661;53.566;9.910;2022-07-18T02:14:59;4.50;;;2.63;;
38901;SDS011;24661;53.566;9.910;2022-07-18T02:17:25;3.53;;;2.67;;
38901;SDS011;24661;53.566;9.910;2022-07-18T02:19:51;5.23;;;2.60;;
38901;SDS011;24661;53.566;9.910;2022-07-18T02:22:16;2.23;;;2.03;;
38901;SDS011;24661;53.566;9.910;2022-07-18T02:24:42;4.10;;;2.80;;
38901;SDS011;24661;53.566;9.910;2022-07-18T02:27:08;4.07;;;2.63;;
38901;SDS011;24661;53.566;9.910;2022-07-18T02:29:34;5.50;;;2.50;;
38901;SDS011;24661;53.566;9.910;2022-07-18T02:32:00;3.90;;;2.80;;
38901;SDS011;24661;53.566;9.910;2022-07-18T02:34:27;3.77;;;2.53;;
38901;SDS011;24661;53.566;9.910;2022-07-18T02:36:52;4.77;;;2.80;;
38901;SDS011;24661;53.566;9.910;2022-07-18T02:39:18;3.40;;;2.23;;
38901;SDS011;24661;53.566;9.910;2022-07-18T02:41:44;4.20;;;2.63;;
38901;SDS011;24661;53.566;9.910;2022-07-18T02:44:10;5.53;;;2.87;;
38901;SDS011;24661;53.566;9.910;2022-07-18T02:46:35;5.43;;;2.80;;
38901;SDS011;24661;53.566;9.910;2022-07-18T02:49:01;5.23;;;2.47;;
38901;SDS011;24661;53.566;9.910;2022-07-18T02:51:27;4.77;;;2.70;;
38901;SDS011;24661;53.566;9.910;2022-07-18T02:53:53;3.43;;;2.43;;
38901;SDS011;24661;53.566;9.910;2022-07-18T02:56:19;2.80;;;2.47;;
38901;SDS011;24661;53.566;9.910;2022-07-18T02:58:45;5.77;;;2.73;;
38901;SDS011;24661;53.566;9.910;2022-07-18T03:01:11;4.90;;;2.33;;
38901;SDS011;24661;53.566;9.910;2022-07-18T03:03:36;3.83;;;2.80;;
38901;SDS011;24661;53.566;9.910;2022-07-18T03:06:02;2.93;;;2.40;;
38901;SDS011;24661;53.566;9.910;2022-07-18T03:08:28;5.23;;;2.57;;
38901;SDS011;24661;53.566;9.910;2022-07-18T03:10:53;3.27;;;2.63;;
38901;SDS011;24661;53.566;9.910;2022-07-18T03:13:19;4.30;;;2.90;;
38901;SDS011;24661;53.566;9.910;2022-07-18T03:15:45;4.77;;;2.47;;
38901;SDS011;24661;53.566;9.910;2022-07-18T03:18:10;4.00;;;2.67;;
38901;SDS011;24661;53.566;9.910;2022-07-18T03:20:36;4.17;;;2.60;;
38901;SDS011;24661;53.566;9.910;2022-07-18T03:23:05;3.10;;;2.53;;
38901;SDS011;24661;53.566;9.910;2022-07-18T03:25:31;4.17;;;2.53;;
38901;SDS011;24661;53.566;9.910;2022-07-18T03:27:57;4.37;;;3.30;;
38901;SDS011;24661;53.566;9.910;2022-07-18T03:30:23;5.93;;;3.00;;
38901;SDS011;24661;53.566;9.910;2022-07-18T03:32:49;6.97;;;3.73;;
38901;SDS011;24661;53.566;9.910;2022-07-18T03:35:15;4.40;;;3.27;;
38901;SDS011;24661;53.566;9.910;2022-07-18T03:37:40;6.17;;;3.90;;
38901;SDS011;24661;53.566;9.910;2022-07-18T03:40:06;3.43;;;3.00;;
38901;SDS011;24661;53.566;9.910;2022-07-18T03:42:32;5.70;;;3.90;;
38901;SDS011;24661;53.566;9.910;2022-07-18T03:45:01;4.77;;;3.13;;
38901;SDS011;24661;53.566;9.910;2022-07-18T03:47:26;6.80;;;3.13;;
38901;SDS011;24661;53.566;9.910;2022-07-18T03:49:52;4.50;;;3.87;;
38901;SDS011;24661;53.566;9.910;2022-07-18T03:52:17;5.53;;;3.30;;
38901;SDS011;24661;53.566;9.910;2022-07-18T03:54:43;4.30;;;2.63;;
38901;SDS011;24661;53.566;9.910;2022-07-18T03:57:08;2.90;;;2.60;;
38901;SDS011;24661;53.566;9.910;2022-07-18T03:59:34;4.10;;;2.73;;
38901;SDS011;24661;53.566;9.910;2022-07-18T04:02:00;5.40;;;3.10;;
38901;SDS011;24661;53.566;9.910;2022-07-18T04:04:26;4.10;;;2.83;;
38901;SDS011;24661;53.566;9.910;2022-07-18T04:06:51;3.63;;;3.30;;
38901;SDS011;24661;53.566;9.910;2022-07-18T04:09:17;5.13;;;4.07;;
38901;SDS011;24661;53.566;9.910;2022-07-18T04:11:43;7.93;;;3.50;;
38901;SDS011;24661;53.566;9.910;2022-07-18T04:14:08;5.43;;;4.03;;
38901;SDS011;24661;53.566;9.910;2022-07-18T04:16:34;5.20;;;3.17;;
38901;SDS011;24661;53.566;9.910;2022-07-18T04:18:59;4.43;;;3.80;;
38901;SDS011;24661;53.566;9.910;2022-07-18T04:21:25;6.47;;;3.50;;
38901;SDS011;24661;53.566;9.910;2022-07-18T04:23:51;4.60;;;3.63;;
38901;SDS011;24661;53.566;9.910;2022-07-18T04:26:18;9.83;;;4.00;;
38901;SDS011;24661;53.566;9.910;2022-07-18T04:28:43;4.03;;;3.60;;
38901;SDS011;24661;53.566;9.910;2022-07-18T04:31:09;9.30;;;4.73;;
38901;SDS011;24661;53.566;9.910;2022-07-18T04:33:35;6.67;;;4.10;;
38901;SDS011;24661;53.566;9.910;2022-07-18T04:36:01;5.53;;;3.50;;
38901;SDS011;24661;53.566;9.910;2022-07-18T04:38:26;6.57;;;4.07;;
38901;SDS011;24661;53.566;9.910;2022-07-18T04:40:55;6.80;;;3.80;;
38901;SDS011;24661;53.566;9.910;2022-07-18T04:43:21;11.17;;;4.60;;
38901;SDS011;24661;53.566;9.910;2022-07-18T04:45:47;11.30;;;4.13;;
38901;SDS011;24661;53.566;9.910;2022-07-18T04:48:13;7.93;;;3.93;;
38901;SDS011;24661;53.566;9.910;2022-07-18T04:50:38;7.53;;;4.07;;
38901;SDS011;24661;53.566;9.910;2022-07-18T04:53:04;7.87;;;3.53;;
38901;SDS011;24661;53.566;9.910;2022-07-18T04:55:29;6.50;;;4.23;;
38901;SDS011;24661;53.566;9.910;2022-07-18T04:57:55;10.67;;;4.27;;
38901;SDS011;24661;53.566;9.910;2022-07-18T05:00:21;5.40;;;4.13;;
38901;SDS011;24661;53.566;9.910;2022-07-18T05:02:50;6.47;;;4.83;;
38901;SDS011;24661;53.566;9.910;2022-07-18T05:05:17;6.93;;;4.60;;
38901;SDS011;24661;53.566;9.910;2022-07-18T05:07:44;6.83;;;4.93;;
38901;SDS011;24661;53.566;9.910;2022-07-18T05:10:12;9.90;;;4.23;;
38901;SDS011;24661;53.566;9.910;2022-07-18T05:12:40;7.63;;;4.07;;
38901;SDS011;24661;53.566;9.910;2022-07-18T05:15:07;7.40;;;3.97;;
38901;SDS011;24661;53.566;9.910;2022-07-18T05:17:35;5.23;;;3.80;;
38901;SDS011;24661;53.566;9.910;2022-07-18T05:20:01;8.30;;;3.67;;
38901;SDS011;24661;53.566;9.910;2022-07-18T05:22:28;8.80;;;4.50;;
38901;SDS011;24661;53.566;9.910;2022-07-18T05:24:53;8.23;;;4.80;;
38901;SDS011;24661;53.566;9.910;2022-07-18T05:27:19;8.93;;;4.10;;
38901;SDS011;24661;53.566;9.910;2022-07-18T05:29:45;7.27;;;3.90;;
38901;SDS011;24661;53.566;9.910;2022-07-18T05:32:10;6.67;;;3.70;;
38901;SDS011;24661;53.566;9.910;2022-07-18T05:34:37;6.90;;;3.97;;
38901;SDS011;24661;53.566;9.910;2022-07-18T05:37:02;6.23;;;3.93;;
38901;SDS011;24661;53.566;9.910;2022-07-18T05:39:28;14.33;;;4.73;;
38901;SDS011;24661;53.566;9.910;2022-07-18T05:41:54;9.47;;;4.27;;
38901;SDS011;24661;53.566;9.910;2022-07-18T05:44:19;15.60;;;4.00;;
38901;SDS011;24661;53.566;9.910;2022-07-18T05:46:45;5.30;;;3.80;;
38901;SDS011;24661;53.566;9.910;2022-07-18T05:49:12;15.43;;;5.07;;
38901;SDS011;24661;53.566;9.910;2022-07-18T05:51:38;12.93;;;4.03;;
38901;SDS011;24661;53.566;9.910;2022-07-18T05:54:04;6.77;;;4.57;;
38901;SDS011;24661;53.566;9.910;2022-07-18T05:56:29;10.77;;;4.13;;
38901;SDS011;24661;53.566;9.910;2022-07-18T05:58:55;5.83;;;4.23;;
38901;SDS011;24661;53.566;9.910;2022-07-18T06:01:21;7.53;;;3.93;;
38901;SDS011;24661;53.566;9.910;2022-07-18T06:03:46;11.73;;;5.20;;
38901;SDS011;24661;53.566;9.910;2022-07-18T06:06:13;10.87;;;5.40;;
38901;SDS011;24661;53.566;9.910;2022-07-18T06:08:39;6.33;;;4.60;;
38901;SDS011;24661;53.566;9.910;2022-07-18T06:11:07;10.07;;;4.50;;
38901;SDS011;24661;53.566;9.910;2022-07-18T06:13:34;9.23;;;6.50;;
38901;SDS011;24661;53.566;9.910;2022-07-18T06:16:01;13.10;;;6.83;;
38901;SDS011;24661;53.566;9.910;2022-07-18T06:18:27;10.00;;;5.00;;
38901;SDS011;24661;53.566;9.910;2022-07-18T06:20:53;11.87;;;5.30;;
38901;SDS011;24661;53.566;9.910;2022-07-18T06:23:19;8.80;;;4.60;;
38901;SDS011;24661;53.566;9.910;2022-07-18T06:25:44;10.93;;;5.57;;
38901;SDS011;24661;53.566;9.910;2022-07-18T06:28:10;10.90;;;5.60;;
38901;SDS011;24661;53.566;9.910;2022-07-18T06:30:35;13.70;;;5.50;;
38901;SDS011;24661;53.566;9.910;2022-07-18T06:33:01;13.13;;;6.40;;
38901;SDS011;24661;53.566;9.910;2022-07-18T06:35:31;9.83;;;5.23;;
38901;SDS011;24661;53.566;9.910;2022-07-18T06:37:57;9.43;;;5.50;;
38901;SDS011;24661;53.566;9.910;2022-07-18T06:40:22;12.17;;;5.50;;
38901;SDS011;24661;53.566;9.910;2022-07-18T06:42:50;11.30;;;5.57;;
38901;SDS011;24661;53.566;9.910;2022-07-18T06:45:16;10.37;;;5.30;;
38901;SDS011;24661;53.566;9.910;2022-07-18T06:47:41;10.37;;;6.70;;
38901;SDS011;24661;53.566;9.910;2022-07-18T06:50:07;8.80;;;5.30;;
38901;SDS011;24661;53.566;9.910;2022-07-18T06:52:33;15.03;;;5.77;;
38901;SDS011;24661;53.566;9.910;2022-07-18T06:54:59;11.83;;;5.10;;
38901;SDS011;24661;53.566;9.910;2022-07-18T06:57:26;10.47;;;5.70;;
38901;SDS011;24661;53.566;9.910;2022-07-18T06:59:52;8.83;;;5.60;;
38901;SDS011;24661;53.566;9.910;2022-07-18T07:02:19;23.93;;;5.73;;
38901;SDS011;24661;53.566;9.910;2022-07-18T07:04:44;9.40;;;5.53;;
38901;SDS011;24661;53.566;9.910;2022-07-18T07:07:10;12.13;;;5.77;;
38901;SDS011;24661;53.566;9.910;2022-07-18T07:09:35;7.13;;;5.20;;
38901;SDS011;24661;53.566;9.910;2022-07-18T07:12:01;13.13;;;6.67;;
38901;SDS011;24661;53.566;9.910;2022-07-18T07:14:26;11.87;;;6.13;;
38901;SDS011;24661;53.566;9.910;2022-07-18T07:16:52;8.53;;;5.40;;
38901;SDS011;24661;53.566;9.910;2022-07-18T07:19:18;9.97;;;5.30;;
38901;SDS011;24661;53.566;9.910;2022-07-18T07:21:43;7.57;;;5.27;;
38901;SDS011;24661;53.566;9.910;2022-07-18T07:24:09;12.07;;;6.03;;
38901;SDS011;24661;53.566;9.910;2022-07-18T07:26:34;7.57;;;5.20;;
38901;SDS011;24661;53.566;9.910;2022-07-18T07:29:00;8.33;;;5.77;;
38901;SDS011;24661;53.566;9.910;2022-07-18T07:31:25;7.87;;;5.20;;
38901;SDS011;24661;53.566;9.910;2022-07-18T07:33:51;7.23;;;5.60;;
38901;SDS011;24661;53.566;9.910;2022-07-18T07:36:17;7.40;;;5.20;;
38901;SDS011;24661;53.566;9.910;2022-07-18T07:38:42;7.47;;;4.87;;
38901;SDS011;24661;53.566;9.910;2022-07-18T07:41:08;7.27;;;5.03;;
38901;SDS011;24661;53.566;9.910;2022-07-18T07:43:34;8.43;;;6.07;;
38901;SDS011;24661;53.566;9.910;2022-07-18T07:46:02;7.33;;;5.40;;
38901;SDS011;24661;53.566;9.910;2022-07-18T07:48:28;7.80;;;5.07;;
38901;SDS011;24661;53.566;9.910;2022-07-18T07:50:53;6.80;;;4.70;;
38901;SDS011;24661;53.566;9.910;2022-07-18T07:53:19;8.27;;;5.03;;
38901;SDS011;24661;53.566;9.910;2022-07-18T07:55:44;6.50;;;4.50;;
38901;SDS011;24661;53.566;9.910;2022-07-18T07:58:10;8.13;;;5.10;;
38901;SDS011;24661;53.566;9.910;2022-07-18T08:00:37;6.77;;;4.70;;
38901;SDS011;24661;53.566;9.910;2022-07-18T08:03:04;5.57;;;4.13;;
38901;SDS011;24661;53.566;9.910;2022-07-18T08:05:32;11.17;;;4.67;;
38901;SDS011;24661;53.566;9.910;2022-07-18T08:08:00;9.37;;;5.30;;
38901;SDS011;24661;53.566;9.910;2022-07-18T08:10:27;5.80;;;4.37;;
38901;SDS011;24661;53.566;9.910;2022-07-18T08:12:53;8.60;;;5.93;;
38901;SDS011;24661;53.566;9.910;2022-07-18T08:15:19;9.60;;;5.20;;
38901;SDS011;24661;53.566;9.910;2022-07-18T08:17:45;8.57;;;4.87;;
38901;SDS011;24661;53.566;9.910;2022-07-18T08:20:10;7.40;;;4.80;;
38901;SDS011;24661;53.566;9.910;2022-07-18T08:22:37;9.80;;;4.87;;
38901;SDS011;24661;53.566;9.910;2022-07-18T08:25:22;11.33;;;4.30;;
38901;SDS011;24661;53.566;9.910;2022-07-18T08:27:49;11.07;;;3.30;;
38901;SDS011;24661;53.566;9.910;2022-07-18T08:30:15;6.43;;;3.73;;
38901;SDS011;24661;53.566;9.910;2022-07-18T08:32:41;5.37;;;4.00;;
38901;SDS011;24661;53.566;9.910;2022-07-18T08:35:07;12.30;;;8.73;;
38901;SDS011;24661;53.566;9.910;2022-07-18T08:37:32;7.73;;;4.43;;
38901;SDS011;24661;53.566;9.910;2022-07-18T08:39:58;7.20;;;3.63;;
38901;SDS011;24661;53.566;9.910;2022-07-18T08:42:25;4.10;;;2.77;;
38901;SDS011;24661;53.566;9.910;2022-07-18T08:44:55;5.70;;;3.10;;
38901;SDS011;24661;53.566;9.910;2022-07-18T08:47:22;4.70;;;3.00;;
38901;SDS011;24661;53.566;9.910;2022-07-18T08:49:50;4.67;;;3.00;;
38901;SDS011;24661;53.566;9.910;2022-07-18T08:52:17;5.40;;;2.77;;
38901;SDS011;24661;53.566;9.910;2022-07-18T08:54:44;5.77;;;2.97;;
38901;SDS011;24661;53.566;9.910;2022-07-18T08:57:11;4.57;;;3.33;;
38901;SDS011;24661;53.566;9.910;2022-07-18T08:59:37;6.33;;;3.60;;
38901;SDS011;24661;53.566;9.910;2022-07-18T09:02:02;7.33;;;3.63;;
38901;SDS011;24661;53.566;9.910;2022-07-18T09:04:38;5.53;;;3.47;;
38901;SDS011;24661;53.566;9.910;2022-07-18T09:07:06;5.07;;;3.40;;
38901;SDS011;24661;53.566;9.910;2022-07-18T09:09:34;9.50;;;3.63;;
38901;SDS011;24661;53.566;9.910;2022-07-18T09:12:06;6.63;;;3.93;;
38901;SDS011;24661;53.566;9.910;2022-07-18T09:14:40;4.57;;;3.10;;
38901;SDS011;24661;53.566;9.910;2022-07-18T09:17:12;7.67;;;3.80;;
38901;SDS011;24661;53.566;9.910;2022-07-18T09:19:41;6.83;;;4.20;;
38901;SDS011;24661;53.566;9.910;2022-07-18T09:24:59;4.07;;;3.33;;
38901;SDS011;24661;53.566;9.910;2022-07-18T09:27:36;4.20;;;2.83;;
38901;SDS011;24661;53.566;9.910;2022-07-18T09:30:26;4.93;;;3.37;;
38901;SDS011;24661;53.566;9.910;2022-07-18T09:35:44;5.97;;;3.47;;
38901;SDS011;24661;53.566;9.910;2022-07-18T09:38:14;4.40;;;3.33;;
38901;SDS011;24661;53.566;9.910;2022-07-18T09:40:41;4.97;;;3.40;;
38901;SDS011;24661;53.566;9.910;2022-07-18T09:43:09;4.93;;;3.20;;
38901;SDS011;24661;53.566;9.910;2022-07-18T09:45:37;5.43;;;2.83;;
38901;SDS011;24661;53.566;9.910;2022-07-18T09:48:05;5.60;;;3.40;;
38901;SDS011;24661;53.566;9.910;2022-07-18T09:50:40;7.40;;;3.20;;
38901;SDS011;24661;53.566;9.910;2022-07-18T09:53:15;6.93;;;3.50;;
38901;SDS011;24661;53.566;9.910;2022-07-18T09:55:49;6.20;;;3.10;;
38901;SDS011;24661;53.566;9.910;2022-07-18T09:58:18;7.83;;;3.00;;
38901;SDS011;24661;53.566;9.910;2022-07-18T10:00:46;6.00;;;3.13;;
38901;SDS011;24661;53.566;9.910;2022-07-18T10:03:13;5.23;;;3.27;;
38901;SDS011;24661;53.566;9.910;2022-07-18T10:05:39;10.60;;;2.73;;
38901;SDS011;24661;53.566;9.910;2022-07-18T10:08:07;3.83;;;2.83;;
38901;SDS011;24661;53.566;9.910;2022-07-18T10:10:34;5.93;;;3.50;;
38901;SDS011;24661;53.566;9.910;2022-07-18T10:13:02;5.60;;;3.17;;
38901;SDS011;24661;53.566;9.910;2022-07-18T10:15:29;4.13;;;3.03;;
38901;SDS011;24661;53.566;9.910;2022-07-18T10:17:57;6.10;;;3.37;;
38901;SDS011;24661;53.566;9.910;2022-07-18T10:20:27;5.10;;;3.47;;
38901;SDS011;24661;53.566;9.910;2022-07-18T10:23:07;6.03;;;4.07;;
38901;SDS011;24661;53.566;9.910;2022-07-18T10:25:33;3.77;;;3.27;;
38901;SDS011;24661;53.566;9.910;2022-07-18T10:28:03;7.20;;;3.73;;
38901;SDS011;24661;53.566;9.910;2022-07-18T10:30:31;8.13;;;4.63;;
38901;SDS011;24661;53.566;9.910;2022-07-18T10:33:29;4.77;;;3.20;;
38901;SDS011;24661;53.566;9.910;2022-07-18T10:36:07;5.47;;;3.47;;
38901;SDS011;24661;53.566;9.910;2022-07-18T10:38:38;6.53;;;3.40;;
38901;SDS011;24661;53.566;9.910;2022-07-18T10:41:23;4.23;;;3.50;;
38901;SDS011;24661;53.566;9.910;2022-07-18T10:43:49;4.90;;;3.30;;
38901;SDS011;24661;53.566;9.910;2022-07-18T10:46:15;6.53;;;3.67;;
38901;SDS011;24661;53.566;9.910;2022-07-18T10:51:06;6.37;;;3.97;;
38901;SDS011;24661;53.566;9.910;2022-07-18T10:56:17;4.93;;;3.53;;
38901;SDS011;24661;53.566;9.910;2022-07-18T10:58:43;5.17;;;3.93;;
38901;SDS011;24661;53.566;9.910;2022-07-18T11:01:13;6.93;;;4.27;;
38901;SDS011;24661;53.566;9.910;2022-07-18T11:03:41;7.67;;;4.53;;
38901;SDS011;24661;53.566;9.910;2022-07-18T11:06:07;5.33;;;4.17;;
38901;SDS011;24661;53.566;9.910;2022-07-18T11:08:33;6.60;;;4.63;;
38901;SDS011;24661;53.566;9.910;2022-07-18T11:24:10;6.63;;;5.33;;
38901;SDS011;24661;53.566;9.910;2022-07-18T11:26:43;5.70;;;4.50;;
38901;SDS011;24661;53.566;9.910;2022-07-18T11:29:11;9.87;;;4.60;;
38901;SDS011;24661;53.566;9.910;2022-07-18T11:31:51;7.00;;;5.00;;
38901;SDS011;24661;53.566;9.910;2022-07-18T11:34:22;6.07;;;4.67;;
38901;SDS011;24661;53.566;9.910;2022-07-18T11:36:48;5.87;;;4.50;;
38901;SDS011;24661;53.566;9.910;2022-07-18T11:39:16;7.83;;;5.80;;
38901;SDS011;24661;53.566;9.910;2022-07-18T11:41:55;9.17;;;4.37;;
38901;SDS011;24661;53.566;9.910;2022-07-18T11:44:22;6.33;;;5.17;;
38901;SDS011;24661;53.566;9.910;2022-07-18T11:47:01;6.93;;;5.27;;
38901;SDS011;24661;53.566;9.910;2022-07-18T11:49:32;7.37;;;4.50;;
38901;SDS011;24661;53.566;9.910;2022-07-18T11:51:57;7.30;;;5.03;;
38901;SDS011;24661;53.566;9.910;2022-07-18T11:54:23;5.77;;;4.70;;
38901;SDS011;24661;53.566;9.910;2022-07-18T11:56:51;7.17;;;5.00;;
38901;SDS011;24661;53.566;9.910;2022-07-18T11:59:18;7.47;;;4.60;;
38901;SDS011;24661;53.566;9.910;2022-07-18T12:01:45;7.77;;;4.83;;
38901;SDS011;24661;53.566;9.910;2022-07-18T12:04:23;10.40;;;4.73;;
38901;SDS011;24661;53.566;9.910;2022-07-18T12:09:45;7.57;;;4.47;;
38901;SDS011;24661;53.566;9.910;2022-07-18T12:12:15;6.23;;;4.57;;
38901;SDS011;24661;53.566;9.910;2022-07-18T12:14:42;4.57;;;4.07;;
38901;SDS011;24661;53.566;9.910;2022-07-18T12:17:08;6.83;;;3.73;;
38901;SDS011;24661;53.566;9.910;2022-07-18T12:19:34;4.87;;;4.33;;
38901;SDS011;24661;53.566;9.910;2022-07-18T12:27:24;6.60;;;5.53;;
38901;SDS011;24661;53.566;9.910;2022-07-18T12:35:10;4.37;;;3.97;;
38901;SDS011;24661;53.566;9.910;2022-07-18T12:37:37;4.17;;;3.70;;
38901;SDS011;24661;53.566;9.910;2022-07-18T12:40:07;6.10;;;4.03;;
38901;SDS011;24661;53.566;9.910;2022-07-18T12:42:36;5.73;;;3.53;;
38901;SDS011;24661;53.566;9.910;2022-07-18T12:45:03;6.00;;;3.93;;
38901;SDS011;24661;53.566;9.910;2022-07-18T12:47:30;4.37;;;3.50;;
38901;SDS011;24661;53.566;9.910;2022-07-18T12:49:56;3.80;;;3.40;;
38901;SDS011;24661;53.566;9.910;2022-07-18T12:52:22;4.07;;;3.43;;
38901;SDS011;24661;53.566;9.910;2022-07-18T12:54:48;5.53;;;3.10;;
38901;SDS011;24661;53.566;9.910;2022-07-18T12:57:15;5.17;;;3.10;;
38901;SDS011;24661;53.566;9.910;2022-07-18T12:59:41;4.77;;;3.10;;
38901;SDS011;24661;53.566;9.910;2022-07-18T13:02:07;3.13;;;2.83;;
38901;SDS011;24661;53.566;9.910;2022-07-18T13:04:32;3.23;;;2.90;;
38901;SDS011;24661;53.566;9.910;2022-07-18T13:06:58;4.43;;;3.13;;
38901;SDS011;24661;53.566;9.910;2022-07-18T13:09:24;3.20;;;2.90;;
38901;SDS011;24661;53.566;9.910;2022-07-18T13:11:49;3.73;;;2.80;;
38901;SDS011;24661;53.566;9.910;2022-07-18T13:14:16;6.07;;;2.67;;
38901;SDS011;24661;53.566;9.910;2022-07-18T13:16:42;6.30;;;2.87;;
38901;SDS011;24661;53.566;9.910;2022-07-18T13:19:11;4.77;;;3.13;;
38901;SDS011;24661;53.566;9.910;2022-07-18T13:21:38;3.20;;;2.90;;
38901;SDS011;24661;53.566;9.910;2022-07-18T13:24:04;5.27;;;3.50;;
38901;SDS011;24661;53.566;9.910;2022-07-18T13:26:30;5.23;;;3.30;;
38901;SDS011;24661;53.566;9.910;2022-07-18T13:28:55;4.67;;;3.07;;
38901;SDS011;24661;53.566;9.910;2022-07-18T13:31:21;3.77;;;3.20;;
38901;SDS011;24661;53.566;9.910;2022-07-18T13:33:47;4.60;;;3.17;;
38901;SDS011;24661;53.566;9.910;2022-07-18T13:36:13;4.60;;;3.27;;
38901;SDS011;24661;53.566;9.910;2022-07-18T13:38:39;5.17;;;3.20;;
38901;SDS011;24661;53.566;9.910;2022-07-18T13:41:05;5.10;;;3.03;;
38901;SDS011;24661;53.566;9.910;2022-07-18T13:43:31;4.63;;;2.97;;
38901;SDS011;24661;53.566;9.910;2022-07-18T13:45:57;6.70;;;3.20;;
38901;SDS011;24661;53.566;9.910;2022-07-18T13:48:23;5.60;;;2.93;;
38901;SDS011;24661;53.566;9.910;2022-07-18T13:50:48;4.37;;;2.83;;
38901;SDS011;24661;53.566;9.910;2022-07-18T13:53:14;4.67;;;3.57;;
38901;SDS011;24661;53.566;9.910;2022-07-18T13:55:39;5.00;;;2.90;;
38901;SDS011;24661;53.566;9.910;2022-07-18T13:58:05;5.33;;;2.87;;
38901;SDS011;24661;53.566;9.910;2022-07-18T14:00:31;4.23;;;3.53;;
38901;SDS011;24661;53.566;9.910;2022-07-18T14:02:56;4.30;;;3.30;;
38901;SDS011;24661;53.566;9.910;2022-07-18T14:05:22;4.63;;;2.83;;
38901;SDS011;24661;53.566;9.910;2022-07-18T14:07:47;3.83;;;3.43;;
38901;SDS011;24661;53.566;9.910;2022-07-18T14:10:13;8.03;;;3.17;;
38901;SDS011;24661;53.566;9.910;2022-07-18T14:12:40;5.40;;;2.90;;
38901;SDS011;24661;53.566;9.910;2022-07-18T14:15:06;4.07;;;3.17;;
38901;SDS011;24661;53.566;9.910;2022-07-18T14:17:32;5.30;;;2.87;;
38901;SDS011;24661;53.566;9.910;2022-07-18T14:19:58;4.07;;;3.10;;
38901;SDS011;24661;53.566;9.910;2022-07-18T14:22:24;5.17;;;3.77;;
38901;SDS011;24661;53.566;9.910;2022-07-18T14:24:50;6.80;;;3.83;;
38901;SDS011;24661;53.566;9.910;2022-07-18T14:27:15;5.00;;;3.20;;
38901;SDS011;24661;53.566;9.910;2022-07-18T14:29:41;5.10;;;3.37;;
38901;SDS011;24661;53.566;9.910;2022-07-18T14:32:07;5.17;;;3.03;;
38901;SDS011;24661;53.566;9.910;2022-07-18T14:34:32;6.97;;;3.70;;
38901;SDS011;24661;53.566;9.910;2022-07-18T14:36:58;4.33;;;3.40;;
38901;SDS011;24661;53.566;9.910;2022-07-18T14:39:24;5.17;;;3.40;;
38901;SDS011;24661;53.566;9.910;2022-07-18T14:41:50;4.20;;;3.77;;
38901;SDS011;24661;53.566;9.910;2022-07-18T14:44:16;4.07;;;3.13;;
38901;SDS011;24661;53.566;9.910;2022-07-18T14:46:42;4.70;;;3.03;;
38901;SDS011;24661;53.566;9.910;2022-07-18T14:49:08;4.53;;;3.40;;
38901;SDS011;24661;53.566;9.910;2022-07-18T14:51:33;3.77;;;2.90;;
38901;SDS011;24661;53.566;9.910;2022-07-18T14:53:59;3.77;;;3.20;;
38901;SDS011;24661;53.566;9.910;2022-07-18T14:56:25;4.73;;;3.07;;
38901;SDS011;24661;53.566;9.910;2022-07-18T14:58:51;5.77;;;3.13;;
38901;SDS011;24661;53.566;9.910;2022-07-18T15:01:16;8.97;;;3.70;;
38901;SDS011;24661;53.566;9.910;2022-07-18T15:03:44;5.70;;;3.47;;
38901;SDS011;24661;53.566;9.910;2022-07-18T15:06:11;4.67;;;3.17;;
38901;SDS011;24661;53.566;9.910;2022-07-18T15:08:36;4.83;;;3.30;;
38901;SDS011;24661;53.566;9.910;2022-07-18T15:11:02;5.20;;;3.93;;
38901;SDS011;24661;53.566;9.910;2022-07-18T15:13:28;4.83;;;3.63;;
38901;SDS011;24661;53.566;9.910;2022-07-18T15:15:53;5.40;;;3.33;;
38901;SDS011;24661;53.566;9.910;2022-07-18T15:18:19;4.93;;;3.80;;
38901;SDS011;24661;53.566;9.910;2022-07-18T15:20:44;6.63;;;4.20;;